Airfield :
LOGIN :

Register | Disclaimer

   EN    FR    IT 

 










Legend :    VFR   Marginal VFR   IFR   Intensive IFR   Very Intensive IFR
Visi :
Ceiling :
>= 8 km
>= 3000ft
5 to 8 km
1000 to 3000 ft
1500m to 5 km
500 to 1000 ft
800 to 1500m
200 to 500 ft
< 800m
< 200 ft
Symbols :   Thunderstorms  Fog  Heavy snow  Heavy precipitations  Wind > 20 kt
SIGMETs :     Misc.  Thunderstorms  Icing  Turbulence  Mountain Waves  Volcanic Ashes







- Airport Elevation : 370 ft


EBBE - Beauvechain AB

CURRENT METAR :
  • 102025Z 25005KT 9999 FEW035 BKN042 04/02 Q1026 BLU BLU

EXPIRED METARs :
  • 101955Z 26005KT 9999 FEW035 BKN042 04/03 Q1025 BLU BLU
  • 101925Z 27006KT 9999 FEW031 BKN038 04/02 Q1025 BLU BLU
  • 101855Z 23006KT 9999 SCT017 BKN023 04/03 Q1025 WHT BLU TEMPO WHT
  • 101825Z 26004KT 9999 SCT017 BKN023 04/03 Q1025 WHT BLU TEMPO WHT
  • 101755Z 33003KT 9999 FEW023TCU BKN032 05/03 Q1025 BLU BLU TEMPO WHT

TAF TAF EBBE
Valid from the 10 at 19:00 until the 11 at 07:00 UTC


101541Z 1019/1107 29007KT 9999 SCT030
TEMPO 1103/1105 6000
No reported NOTAMs for that airfield.



MET'MAP, your aeronautical weather chart ! - Copyright ORBIFLY December 2007 - Disclaimer

ORBIFLY MET'MAP TEAM :

Programming & Development : Alexandra Zaïnal
Concept & Development : Baudouin d'Aumeries
Co-Development & Prog : Marc-Olivier Méhu
Technical & hardware support : Manuel Goepfert

Contact : metmap@orbifly.com




SOURCES & CREDITS :

   NOAA